createdAt,value
2023-07-12T00:00:26.072Z,66
2023-07-12T00:01:31.114Z,65
2023-07-12T00:02:36.899Z,65
2023-07-12T00:03:41.572Z,66
2023-07-12T00:04:46.279Z,66
2023-07-12T00:05:51.034Z,65
2023-07-12T00:06:55.804Z,66
2023-07-12T00:08:00.625Z,66
2023-07-12T00:09:05.350Z,66
2023-07-12T00:10:10.320Z,65
2023-07-12T00:11:18.239Z,65
2023-07-12T00:12:23.020Z,66
2023-07-12T00:13:27.783Z,66
2023-07-12T00:14:32.580Z,66
2023-07-12T00:15:37.299Z,66
2023-07-12T00:16:42.659Z,66
2023-07-12T00:17:47.516Z,66
2023-07-12T00:18:53.880Z,66
2023-07-12T00:19:58.470Z,66
2023-07-12T00:21:03.413Z,66
2023-07-12T00:22:09.318Z,67
2023-07-12T00:23:14.015Z,67
2023-07-12T00:24:21.544Z,67
2023-07-12T00:25:26.437Z,67
2023-07-12T00:26:34.159Z,67
2023-07-12T00:27:39.016Z,66
2023-07-12T00:28:43.775Z,66
2023-07-12T00:29:48.471Z,66
2023-07-12T00:30:53.408Z,66
2023-07-12T00:32:01.168Z,66
2023-07-12T00:33:07.188Z,66
2023-07-12T00:34:11.928Z,66
2023-07-12T00:35:16.731Z,65
2023-07-12T00:36:21.522Z,66
2023-07-12T00:37:29.379Z,65
2023-07-12T00:38:34.895Z,66
2023-07-12T00:39:39.740Z,65
2023-07-12T00:40:45.388Z,65
2023-07-12T00:41:55.945Z,65
2023-07-12T00:43:05.894Z,65
2023-07-12T00:44:16.852Z,65
2023-07-12T00:45:21.652Z,65
2023-07-12T00:46:26.418Z,66
2023-07-12T00:47:34.487Z,66
2023-07-12T00:48:39.227Z,65
2023-07-12T00:49:43.990Z,66
2023-07-12T00:50:49.228Z,66
2023-07-12T00:51:55.051Z,66
2023-07-12T00:53:07.857Z,66
2023-07-12T00:54:20.818Z,66
2023-07-12T00:55:28.386Z,66
2023-07-12T00:56:43.368Z,65
2023-07-12T00:57:48.261Z,65
2023-07-12T00:58:53.189Z,66
2023-07-12T01:00:01.215Z,66
2023-07-12T01:01:06.487Z,66
2023-07-12T01:02:10.860Z,66
2023-07-12T01:03:15.642Z,66
2023-07-12T01:04:20.369Z,66
2023-07-12T01:05:25.090Z,66
2023-07-12T01:06:29.829Z,66
2023-07-12T01:07:34.641Z,66
2023-07-12T01:08:39.380Z,66
2023-07-12T01:09:45.997Z,66
2023-07-12T01:10:50.719Z,66
2023-07-12T01:11:55.447Z,67
2023-07-12T01:13:01.229Z,67
2023-07-12T01:14:07.095Z,67
2023-07-12T01:15:14.705Z,67
2023-07-12T01:16:19.576Z,67
2023-07-12T01:17:24.258Z,67
2023-07-12T01:18:31.285Z,67
2023-07-12T01:19:37.045Z,67
2023-07-12T01:20:41.847Z,67
2023-07-12T01:21:46.712Z,67
2023-07-12T01:22:51.620Z,68
2023-07-12T01:23:56.339Z,67
2023-07-12T01:25:01.205Z,67
2023-07-12T01:26:07.188Z,67
2023-07-12T01:27:22.189Z,67
2023-07-12T01:28:27.011Z,67
2023-07-12T01:29:31.709Z,67
2023-07-12T01:30:36.552Z,67
2023-07-12T01:31:41.286Z,67
2023-07-12T01:32:46.072Z,67
2023-07-12T01:33:50.970Z,67
2023-07-12T01:34:55.887Z,67
2023-07-12T01:36:00.577Z,67
2023-07-12T01:37:08.235Z,67
2023-07-12T01:38:12.960Z,67
2023-07-12T01:39:17.699Z,67
2023-07-12T01:40:22.783Z,67
2023-07-12T01:41:27.561Z,67
2023-07-12T01:42:32.254Z,67
2023-07-12T01:43:37.058Z,67
2023-07-12T01:44:41.816Z,67
2023-07-12T01:45:46.632Z,67
2023-07-12T01:46:51.402Z,67
2023-07-12T01:47:57.454Z,67
2023-07-12T01:49:02.221Z,67
2023-07-12T01:50:06.946Z,67
2023-07-12T01:51:11.963Z,67
2023-07-12T01:52:16.510Z,67
2023-07-12T01:53:21.260Z,67
2023-07-12T01:54:26.043Z,67
2023-07-12T01:55:30.786Z,67
2023-07-12T01:56:35.561Z,68
2023-07-12T01:57:40.401Z,67
2023-07-12T01:58:45.169Z,67
2023-07-12T01:59:50.879Z,67
2023-07-12T02:00:55.631Z,67
2023-07-12T02:02:00.944Z,67
2023-07-12T02:03:05.768Z,67
2023-07-12T02:04:10.518Z,67
2023-07-12T02:05:16.265Z,67
2023-07-12T02:06:22.028Z,67
2023-07-12T02:07:26.816Z,67
2023-07-12T02:08:31.561Z,68
2023-07-12T02:09:36.351Z,68
2023-07-12T02:10:42.194Z,68
2023-07-12T02:11:46.902Z,68
2023-07-12T02:12:51.668Z,68
2023-07-12T02:13:56.442Z,68
2023-07-12T02:15:01.385Z,68
2023-07-12T02:16:06.289Z,68
2023-07-12T02:17:11.005Z,68
2023-07-12T02:18:15.935Z,68
2023-07-12T02:19:20.803Z,68
2023-07-12T02:20:25.710Z,68
2023-07-12T02:21:30.643Z,68
2023-07-12T02:22:35.391Z,68
2023-07-12T02:23:40.178Z,68
2023-07-12T02:24:47.494Z,68
2023-07-12T02:25:52.291Z,68
2023-07-12T02:26:57.210Z,68
2023-07-12T02:28:02.074Z,68
2023-07-12T02:29:07.039Z,68
2023-07-12T02:30:12.871Z,68
2023-07-12T02:31:20.850Z,68
2023-07-12T02:32:25.720Z,68
2023-07-12T02:33:30.727Z,68
2023-07-12T02:34:35.524Z,68
2023-07-12T02:35:40.259Z,68
2023-07-12T02:36:45.055Z,69
2023-07-12T02:37:50.603Z,69
2023-07-12T02:38:55.323Z,69
2023-07-12T02:40:00.063Z,69
2023-07-12T02:41:04.962Z,69
2023-07-12T02:42:09.630Z,69
2023-07-12T02:43:14.451Z,70
2023-07-12T02:44:19.151Z,70
2023-07-12T02:45:23.925Z,70
2023-07-12T02:46:30.458Z,70
2023-07-12T02:47:35.063Z,70
2023-07-12T02:48:40.025Z,70
2023-07-12T02:49:44.910Z,70
2023-07-12T02:50:49.568Z,70
2023-07-12T02:51:54.363Z,70
2023-07-12T02:52:59.189Z,70
2023-07-12T02:54:03.924Z,70
2023-07-12T02:55:08.700Z,70
2023-07-12T02:56:13.457Z,70
2023-07-12T02:57:18.164Z,70
2023-07-12T02:58:23.082Z,70
2023-07-12T02:59:27.992Z,70
2023-07-12T03:00:32.695Z,70
2023-07-12T03:03:39.612Z,70
2023-07-12T03:04:44.417Z,70
2023-07-12T03:05:50.140Z,71
2023-07-12T03:06:54.968Z,71
2023-07-12T03:07:59.668Z,71
2023-07-12T03:09:04.495Z,71
2023-07-12T03:10:09.234Z,71
2023-07-12T03:11:14.009Z,71
2023-07-12T03:12:18.847Z,71
2023-07-12T03:13:23.492Z,71
2023-07-12T03:14:28.222Z,71
2023-07-12T03:15:33.030Z,72
2023-07-12T03:16:37.865Z,72
2023-07-12T03:17:42.774Z,72
2023-07-12T03:18:47.563Z,72
2023-07-12T03:19:52.162Z,72
2023-07-12T03:20:56.964Z,72
2023-07-12T03:22:01.697Z,71
2023-07-12T03:23:06.525Z,71
2023-07-12T03:24:12.211Z,72
2023-07-12T03:25:16.989Z,72
2023-07-12T03:26:22.168Z,72
2023-07-12T03:27:27.174Z,72
2023-07-12T03:28:31.829Z,72
2023-07-12T03:29:36.627Z,72
2023-07-12T03:30:41.625Z,72
2023-07-12T03:31:47.394Z,72
2023-07-12T03:32:52.308Z,72
2023-07-12T03:33:57.042Z,72
2023-07-12T03:35:01.734Z,72
2023-07-12T03:36:06.519Z,72
2023-07-12T03:37:11.375Z,72
2023-07-12T03:38:16.035Z,72
2023-07-12T03:39:20.825Z,72
2023-07-12T03:40:25.654Z,72
2023-07-12T03:41:30.340Z,72
2023-07-12T03:42:35.135Z,72
2023-07-12T03:43:39.870Z,72
2023-07-12T03:44:44.614Z,72
2023-07-12T03:45:49.576Z,71
2023-07-12T03:46:54.466Z,71
2023-07-12T03:47:59.256Z,71
2023-07-12T03:49:04.087Z,71
2023-07-12T03:50:08.835Z,71
2023-07-12T03:51:14.038Z,71
2023-07-12T03:52:18.912Z,71
2023-07-12T03:53:23.535Z,71
2023-07-12T03:54:28.524Z,71
2023-07-12T03:55:33.347Z,71
2023-07-12T03:56:38.126Z,71
2023-07-12T03:57:43.405Z,72
2023-07-12T03:58:48.060Z,72
2023-07-12T03:59:52.672Z,72
2023-07-12T04:00:57.553Z,71
2023-07-12T04:02:02.237Z,71
2023-07-12T04:03:08.411Z,71
2023-07-12T04:04:13.072Z,71
2023-07-12T04:05:17.755Z,71
2023-07-12T04:06:22.604Z,71
2023-07-12T04:07:29.579Z,71
2023-07-12T04:08:34.479Z,70
2023-07-12T04:09:39.559Z,70
2023-07-12T04:10:45.500Z,71
2023-07-12T04:11:50.505Z,70
2023-07-12T04:12:55.248Z,70
2023-07-12T04:14:00.099Z,71
2023-07-12T04:15:04.965Z,71
2023-07-12T04:16:10.925Z,71
2023-07-12T04:17:16.710Z,70
2023-07-12T04:18:21.621Z,71
2023-07-12T04:19:26.211Z,70
2023-07-12T04:20:31.007Z,71
2023-07-12T04:21:35.878Z,71
2023-07-12T04:22:40.750Z,71
2023-07-12T04:23:45.777Z,70
2023-07-12T04:24:50.682Z,70
2023-07-12T04:25:55.578Z,70
2023-07-12T04:27:05.434Z,70
2023-07-12T04:28:10.445Z,70
2023-07-12T04:29:16.364Z,70
2023-07-12T04:30:21.104Z,70
2023-07-12T04:31:25.896Z,70
2023-07-12T04:32:31.098Z,71
2023-07-12T04:33:35.868Z,72
2023-07-12T04:34:40.705Z,72
2023-07-12T04:35:46.434Z,73
2023-07-12T04:36:51.853Z,72
2023-07-12T04:37:57.856Z,73
2023-07-12T04:39:02.643Z,72
2023-07-12T04:40:07.554Z,72
2023-07-12T04:41:13.081Z,71
2023-07-12T04:42:17.534Z,71
2023-07-12T04:43:22.364Z,70
2023-07-12T04:44:27.195Z,70
2023-07-12T04:45:31.915Z,70
2023-07-12T04:46:36.722Z,70
2023-07-12T04:47:41.602Z,71
2023-07-12T04:48:46.229Z,71
2023-07-12T04:49:51.002Z,71
2023-07-12T04:50:55.846Z,71
2023-07-12T04:52:00.524Z,71
2023-07-12T04:53:05.278Z,71
2023-07-12T04:54:10.080Z,71
2023-07-12T04:55:15.829Z,71
2023-07-12T04:56:24.471Z,71
2023-07-12T04:57:29.231Z,71
2023-07-12T04:58:34.029Z,71
2023-07-12T04:59:38.730Z,71
2023-07-12T05:00:44.897Z,71
2023-07-12T05:01:49.606Z,71
2023-07-12T05:02:55.470Z,71
2023-07-12T05:04:00.224Z,71
2023-07-12T05:05:04.997Z,71
2023-07-12T05:06:22.415Z,72
2023-07-12T05:07:14.799Z,72
2023-07-12T05:08:19.443Z,71
2023-07-12T05:09:24.237Z,71
2023-07-12T05:10:29.194Z,72
2023-07-12T05:11:35.110Z,72
2023-07-12T05:12:40.031Z,72
2023-07-12T05:13:44.848Z,72
2023-07-12T05:14:49.618Z,73
2023-07-12T05:15:54.421Z,73
2023-07-12T05:16:59.231Z,73
2023-07-12T05:18:04.106Z,72
2023-07-12T05:19:09.716Z,72
2023-07-12T05:20:14.725Z,72
2023-07-12T05:21:19.495Z,71
2023-07-12T05:22:24.566Z,71
2023-07-12T05:23:31.463Z,70
2023-07-12T05:24:36.339Z,70
2023-07-12T05:25:41.221Z,70
2023-07-12T05:26:50.998Z,70
2023-07-12T05:27:55.780Z,70
2023-07-12T05:29:00.662Z,69
2023-07-12T05:30:05.587Z,69
2023-07-12T05:31:12.139Z,68
2023-07-12T05:32:16.664Z,68
2023-07-12T05:33:21.489Z,68
2023-07-12T05:34:26.697Z,68
2023-07-12T05:35:31.712Z,68
2023-07-12T05:36:36.459Z,67
2023-07-12T05:37:41.659Z,67
2023-07-12T05:38:46.541Z,67
2023-07-12T05:39:51.298Z,66
2023-07-12T05:40:56.107Z,66
2023-07-12T05:42:02.124Z,66
2023-07-12T05:43:07.509Z,66
2023-07-12T05:44:12.201Z,66
2023-07-12T05:45:16.980Z,66
2023-07-12T05:46:21.718Z,66
2023-07-12T05:47:26.596Z,65
2023-07-12T05:48:31.515Z,65
2023-07-12T05:49:36.294Z,65
2023-07-12T05:50:41.188Z,65
2023-07-12T05:51:46.041Z,65
2023-07-12T05:52:50.885Z,65
2023-07-12T05:53:56.689Z,65
2023-07-12T05:55:01.426Z,65
2023-07-12T05:56:06.245Z,65
2023-07-12T05:57:11.321Z,65
2023-07-12T05:58:16.225Z,66
2023-07-12T05:59:21.056Z,66
2023-07-12T06:00:26.816Z,66
2023-07-12T06:01:31.528Z,66
2023-07-12T06:02:36.387Z,66
2023-07-12T06:03:41.108Z,66
2023-07-12T06:04:45.953Z,66
2023-07-12T06:05:50.986Z,66
2023-07-12T06:06:55.977Z,67
2023-07-12T06:08:00.870Z,66
2023-07-12T06:09:05.698Z,65
2023-07-12T06:10:10.444Z,65
2023-07-12T06:11:15.423Z,65
2023-07-12T06:12:20.205Z,65
2023-07-12T06:13:25.007Z,65
2023-07-12T06:14:29.807Z,65
2023-07-12T06:15:34.586Z,65
2023-07-12T06:16:39.559Z,65
2023-07-12T06:17:44.105Z,65
2023-07-12T06:18:48.875Z,65
2023-07-12T06:19:54.724Z,66
2023-07-12T06:20:59.493Z,66
2023-07-12T06:22:04.270Z,66
2023-07-12T06:23:09.263Z,66
2023-07-12T06:24:13.992Z,66
2023-07-12T06:25:18.754Z,66
2023-07-12T06:26:23.500Z,66
2023-07-12T06:27:28.387Z,66
2023-07-12T06:28:33.225Z,66
2023-07-12T06:29:38.063Z,66
2023-07-12T06:30:42.931Z,67
2023-07-12T06:31:47.604Z,65
2023-07-12T06:32:52.424Z,65
2023-07-12T06:33:57.682Z,65
2023-07-12T06:35:02.473Z,65
2023-07-12T06:36:08.436Z,64
2023-07-12T06:37:13.309Z,64
2023-07-12T06:38:18.040Z,63
2023-07-12T06:39:22.869Z,63
2023-07-12T06:40:27.472Z,62
2023-07-12T06:41:33.326Z,62
2023-07-12T06:42:39.009Z,62
2023-07-12T06:43:43.915Z,62
2023-07-12T06:44:48.638Z,62
2023-07-12T06:45:58.931Z,62
2023-07-12T06:47:04.712Z,62
2023-07-12T06:48:07.875Z,62
2023-07-12T06:49:10.771Z,62
2023-07-12T06:50:13.768Z,62
2023-07-12T06:51:16.734Z,62
2023-07-12T06:52:19.745Z,62
2023-07-12T06:53:22.726Z,62
2023-07-12T06:54:25.697Z,62
2023-07-12T06:55:28.666Z,62
2023-07-12T06:56:34.540Z,62
2023-07-12T06:57:37.427Z,62
2023-07-12T06:58:40.606Z,62
2023-07-12T06:59:44.378Z,62
2023-07-12T07:00:47.348Z,62
2023-07-12T07:01:50.367Z,62
2023-07-12T07:02:53.411Z,62
2023-07-12T07:03:56.338Z,62
2023-07-12T07:05:01.736Z,61
2023-07-12T07:06:06.692Z,61
2023-07-12T07:07:11.387Z,61
2023-07-12T07:08:16.240Z,61
2023-07-12T07:09:21.075Z,61
2023-07-12T07:10:26.067Z,61
2023-07-12T07:11:30.750Z,61
2023-07-12T07:12:35.453Z,60
2023-07-12T07:13:40.227Z,61
2023-07-12T07:14:45.139Z,62
2023-07-12T07:15:50.195Z,61
2023-07-12T07:16:55.213Z,60
2023-07-12T07:18:00.057Z,60
2023-07-12T07:19:04.678Z,60
2023-07-12T07:20:10.439Z,59
2023-07-12T07:21:16.539Z,59
2023-07-12T07:22:21.214Z,59
2023-07-12T07:23:25.977Z,59
2023-07-12T07:24:30.870Z,60
2023-07-12T07:25:35.530Z,60
2023-07-12T07:26:41.135Z,60
2023-07-12T07:27:45.879Z,60
2023-07-12T07:28:50.656Z,60
2023-07-12T07:30:01.819Z,60
2023-07-12T07:31:06.903Z,60
2023-07-12T07:32:11.852Z,60
2023-07-12T07:33:16.570Z,60
2023-07-12T07:34:21.359Z,59
2023-07-12T07:35:26.181Z,59
2023-07-12T07:36:31.218Z,60
2023-07-12T07:37:35.955Z,61
2023-07-12T07:38:40.765Z,60
2023-07-12T07:39:45.910Z,60
2023-07-12T07:40:50.320Z,60
2023-07-12T07:41:55.248Z,59
2023-07-12T07:42:59.993Z,59
2023-07-12T07:44:05.076Z,60
2023-07-12T07:45:10.064Z,58
2023-07-12T07:46:14.848Z,58
2023-07-12T07:47:21.055Z,59
2023-07-12T07:48:25.966Z,59
2023-07-12T07:49:30.603Z,59
2023-07-12T07:50:35.559Z,59
2023-07-12T07:51:41.527Z,59
2023-07-12T07:52:46.256Z,59
2023-07-12T07:53:52.101Z,59
2023-07-12T07:54:56.899Z,59
2023-07-12T07:56:01.618Z,59
2023-07-12T07:57:06.617Z,60
2023-07-12T07:58:11.470Z,59
2023-07-12T07:59:16.140Z,59
2023-07-12T08:00:21.035Z,59
2023-07-12T08:01:25.939Z,59
2023-07-12T08:02:30.786Z,59
2023-07-12T08:03:35.755Z,59
2023-07-12T08:04:40.248Z,59
2023-07-12T08:05:45.111Z,58
2023-07-12T08:06:50.022Z,59
2023-07-12T08:07:54.855Z,59
2023-07-12T08:08:59.624Z,58
2023-07-12T08:10:04.372Z,59
2023-07-12T08:11:10.037Z,59
2023-07-12T08:12:14.715Z,60
2023-07-12T08:13:19.444Z,60
2023-07-12T08:14:24.222Z,60
2023-07-12T08:15:29.122Z,59
2023-07-12T08:16:34.053Z,60
2023-07-12T08:17:38.838Z,59
2023-07-12T08:18:43.912Z,59
2023-07-12T08:19:48.817Z,59
2023-07-12T08:20:54.186Z,58
2023-07-12T08:21:59.151Z,58
2023-07-12T08:23:03.883Z,59
2023-07-12T08:24:08.664Z,59
2023-07-12T08:25:13.564Z,59
2023-07-12T08:26:18.992Z,59
2023-07-12T08:27:23.769Z,59
2023-07-12T08:28:28.455Z,59
2023-07-12T08:29:33.250Z,59
2023-07-12T08:30:38.425Z,60
2023-07-12T08:31:43.324Z,60
2023-07-12T08:32:48.147Z,60
2023-07-12T08:33:53.015Z,60
2023-07-12T08:34:57.917Z,60
2023-07-12T08:36:03.807Z,61
2023-07-12T08:37:08.852Z,60
2023-07-12T08:38:14.700Z,59
2023-07-12T08:39:19.478Z,60
2023-07-12T08:40:24.357Z,59
2023-07-12T08:41:30.053Z,59
2023-07-12T08:42:34.814Z,59
2023-07-12T08:43:39.679Z,59
2023-07-12T08:44:44.627Z,58
2023-07-12T08:45:49.483Z,58
2023-07-12T08:46:55.644Z,59
2023-07-12T08:48:00.493Z,58
2023-07-12T08:49:05.254Z,58
2023-07-12T08:50:10.026Z,58
2023-07-12T08:51:17.929Z,58
2023-07-12T08:52:23.678Z,58
2023-07-12T08:53:28.437Z,58
2023-07-12T08:54:33.150Z,58
2023-07-12T08:55:40.808Z,58
2023-07-12T08:56:46.585Z,58
2023-07-12T08:57:51.372Z,58
2023-07-12T08:58:59.085Z,58
2023-07-12T09:00:03.981Z,58
2023-07-12T09:01:09.535Z,58
2023-07-12T09:02:16.792Z,58
2023-07-12T09:03:24.292Z,58
2023-07-12T09:04:30.228Z,58
2023-07-12T09:05:35.901Z,58
2023-07-12T09:06:40.785Z,58
2023-07-12T09:07:45.516Z,58
2023-07-12T09:08:55.380Z,57
2023-07-12T09:10:00.118Z,57
2023-07-12T09:11:04.979Z,57
2023-07-12T09:12:20.934Z,57
2023-07-12T09:13:25.841Z,57
2023-07-12T09:14:35.724Z,57
2023-07-12T09:15:40.606Z,57
2023-07-12T09:16:53.197Z,57
2023-07-12T09:18:01.907Z,57
2023-07-12T09:19:06.748Z,57
2023-07-12T09:20:23.008Z,56
2023-07-12T09:21:31.099Z,56
2023-07-12T09:22:35.908Z,56
2023-07-12T09:23:40.653Z,55
2023-07-12T09:24:45.452Z,55
2023-07-12T09:25:51.198Z,55
2023-07-12T09:26:59.801Z,55
2023-07-12T09:28:07.661Z,55
2023-07-12T09:29:15.311Z,55
2023-07-12T09:30:20.262Z,54
2023-07-12T09:31:29.059Z,55
2023-07-12T09:32:33.994Z,55
2023-07-12T09:33:39.772Z,54
2023-07-12T09:34:44.720Z,54
2023-07-12T09:35:49.452Z,54
2023-07-12T09:36:54.333Z,53
2023-07-12T09:37:59.387Z,53
2023-07-12T09:39:04.344Z,53
2023-07-12T09:40:12.132Z,53
2023-07-12T09:41:19.806Z,53
2023-07-12T09:42:24.878Z,52
2023-07-12T09:43:29.555Z,53
2023-07-12T09:44:34.446Z,53
2023-07-12T09:45:43.680Z,52
2023-07-12T09:46:50.284Z,53
2023-07-12T09:48:07.183Z,52
2023-07-12T09:49:14.966Z,53
2023-07-12T09:50:22.396Z,53
2023-07-12T09:51:32.514Z,53
2023-07-12T09:52:37.569Z,53
2023-07-12T09:53:47.565Z,52
2023-07-12T09:54:52.776Z,53
2023-07-12T09:56:00.379Z,53
2023-07-12T09:57:06.200Z,53
2023-07-12T09:58:14.075Z,53
2023-07-12T09:59:19.800Z,53
2023-07-12T10:00:34.726Z,53
2023-07-12T10:01:53.034Z,53
2023-07-12T10:02:58.343Z,53
2023-07-12T10:04:16.164Z,53
2023-07-12T10:05:29.325Z,53
2023-07-12T10:06:34.008Z,53
2023-07-12T10:07:40.384Z,53
2023-07-12T10:08:55.266Z,53
2023-07-12T10:10:05.984Z,53
2023-07-12T10:11:16.708Z,52
2023-07-12T10:12:31.847Z,53
2023-07-12T10:13:42.902Z,53
2023-07-12T10:14:47.785Z,53
2023-07-12T10:15:55.381Z,53
2023-07-12T10:17:01.389Z,53
2023-07-12T10:18:10.486Z,53
2023-07-12T10:19:15.061Z,53
2023-07-12T10:20:22.636Z,53
2023-07-12T10:21:27.395Z,54
2023-07-12T10:22:38.461Z,54
2023-07-12T10:23:44.336Z,53
2023-07-12T10:24:53.740Z,54
2023-07-12T10:25:59.639Z,54
2023-07-12T10:27:04.503Z,54
2023-07-12T10:28:19.637Z,54
2023-07-12T10:29:29.545Z,54
2023-07-12T10:30:42.630Z,54
2023-07-12T10:31:47.436Z,55
2023-07-12T10:32:55.053Z,55
2023-07-12T10:34:09.998Z,55
2023-07-12T10:35:19.836Z,55
2023-07-12T10:36:38.046Z,55
2023-07-12T10:37:42.709Z,55
2023-07-12T10:38:52.674Z,55
2023-07-12T10:39:57.435Z,55
2023-07-12T10:41:02.586Z,56
2023-07-12T10:42:07.531Z,56
2023-07-12T10:43:12.186Z,56
2023-07-12T10:44:16.956Z,56
2023-07-12T10:45:24.659Z,56
2023-07-12T10:46:29.494Z,56
2023-07-12T10:47:41.840Z,56
2023-07-12T10:48:46.555Z,55
2023-07-12T10:49:54.965Z,55
2023-07-12T10:50:59.673Z,55
2023-07-12T10:52:18.294Z,56
2023-07-12T10:53:35.871Z,56
2023-07-12T10:54:33.683Z,56
2023-07-12T10:55:39.318Z,56
2023-07-12T10:56:46.853Z,56
2023-07-12T10:57:54.677Z,56
2023-07-12T10:58:59.476Z,56
2023-07-12T11:00:04.413Z,56
2023-07-12T11:01:14.767Z,56
2023-07-12T11:02:32.213Z,56
2023-07-12T11:03:37.017Z,57
2023-07-12T11:04:49.173Z,57
2023-07-12T11:05:53.897Z,57
2023-07-12T11:06:58.911Z,57
2023-07-12T11:08:11.957Z,57
2023-07-12T11:09:26.983Z,57
2023-07-12T11:10:42.250Z,57
2023-07-12T11:11:47.290Z,57
2023-07-12T11:12:52.325Z,58
2023-07-12T11:13:58.093Z,58
2023-07-12T11:15:13.048Z,57
2023-07-12T11:16:24.883Z,57
2023-07-12T11:17:30.890Z,58
2023-07-12T11:18:35.865Z,58
2023-07-12T11:19:40.557Z,58
2023-07-12T11:20:45.418Z,58
2023-07-12T11:22:00.326Z,58
2023-07-12T11:23:07.969Z,58
2023-07-12T11:24:22.838Z,58
2023-07-12T11:25:30.564Z,58
2023-07-12T11:26:45.462Z,58
2023-07-12T11:27:50.458Z,58
2023-07-12T11:29:03.421Z,59
2023-07-12T11:30:18.195Z,58
2023-07-12T11:31:28.481Z,58
2023-07-12T11:32:34.306Z,59
2023-07-12T11:33:38.903Z,59
2023-07-12T11:34:43.791Z,59
2023-07-12T11:35:48.724Z,59
2023-07-12T11:37:01.492Z,59
2023-07-12T11:38:06.514Z,59
2023-07-12T11:39:11.274Z,59
2023-07-12T11:40:19.188Z,59
2023-07-12T11:41:26.931Z,59
2023-07-12T11:42:31.672Z,59
2023-07-12T11:43:36.540Z,59
2023-07-12T11:44:41.460Z,59
2023-07-12T11:45:46.269Z,60
2023-07-12T11:46:51.274Z,60
2023-07-12T11:47:55.841Z,60
2023-07-12T11:49:00.855Z,59
2023-07-12T11:50:05.682Z,59
2023-07-12T11:51:10.993Z,60
2023-07-12T11:52:18.137Z,60
2023-07-12T11:53:24.318Z,59
2023-07-12T11:54:28.628Z,59
2023-07-12T11:55:38.607Z,60
2023-07-12T11:56:46.493Z,59
2023-07-12T11:57:51.304Z,60
2023-07-12T11:58:56.001Z,60
2023-07-12T12:00:00.766Z,60
2023-07-12T12:01:05.558Z,59
2023-07-12T12:02:10.459Z,59
2023-07-12T12:03:15.540Z,59
2023-07-12T12:04:21.550Z,59
2023-07-12T12:05:31.508Z,59
2023-07-12T12:06:36.516Z,59
2023-07-12T12:07:41.334Z,59
2023-07-12T12:08:46.208Z,59
2023-07-12T12:09:53.706Z,58
2023-07-12T12:10:58.412Z,58
2023-07-12T12:12:03.215Z,58
2023-07-12T12:13:08.276Z,57
2023-07-12T12:14:18.083Z,56
2023-07-12T12:15:22.871Z,56
2023-07-12T12:16:27.709Z,57
2023-07-12T12:17:32.613Z,57
2023-07-12T12:18:37.321Z,56
2023-07-12T12:19:42.217Z,56
2023-07-12T12:20:47.171Z,55
2023-07-12T12:22:00.167Z,55
2023-07-12T12:23:14.983Z,55
2023-07-12T12:24:19.703Z,54
2023-07-12T12:25:24.743Z,54
2023-07-12T12:26:29.551Z,54
2023-07-12T12:27:35.052Z,54
2023-07-12T12:28:39.825Z,53
2023-07-12T12:29:44.794Z,53
2023-07-12T12:30:51.033Z,53
2023-07-12T12:32:01.797Z,53
2023-07-12T12:33:06.096Z,53
2023-07-12T12:34:10.730Z,52
2023-07-12T12:35:15.628Z,51
2023-07-12T12:36:20.325Z,51
2023-07-12T12:37:25.139Z,51
2023-07-12T12:38:30.295Z,51
2023-07-12T12:39:35.179Z,51
2023-07-12T12:40:40.134Z,50
2023-07-12T12:41:44.963Z,50
2023-07-12T12:42:59.539Z,50
2023-07-12T12:44:05.838Z,50
2023-07-12T12:45:09.959Z,50
2023-07-12T12:47:21.356Z,49
2023-07-12T12:48:56.636Z,49
2023-07-12T12:53:56.903Z,49
2023-07-12T12:55:01.661Z,48
2023-07-12T13:02:27.456Z,49
2023-07-12T13:04:50.740Z,47
2023-07-12T13:05:52.885Z,47
2023-07-12T13:11:12.485Z,47
2023-07-12T13:18:11.974Z,46
2023-07-12T13:20:05.223Z,47
2023-07-12T13:21:10.395Z,47
2023-07-12T13:22:22.668Z,47
2023-07-12T13:24:33.094Z,47
2023-07-12T13:25:38.022Z,47
2023-07-12T13:26:42.679Z,47
2023-07-12T13:27:47.413Z,47
2023-07-12T13:28:55.473Z,47
2023-07-12T13:30:00.295Z,46
2023-07-12T13:31:09.326Z,47
2023-07-12T13:32:17.010Z,47
2023-07-12T13:33:21.875Z,47
2023-07-12T13:36:06.674Z,48
2023-07-12T13:36:36.103Z,47
2023-07-12T13:37:43.011Z,47
2023-07-12T13:39:40.903Z,47
2023-07-12T13:39:50.536Z,47
2023-07-12T13:43:10.280Z,47
2023-07-12T13:45:22.832Z,46
2023-07-12T13:46:23.476Z,46
2023-07-12T13:47:29.216Z,46
2023-07-12T13:48:34.294Z,47
2023-07-12T13:49:39.296Z,46
2023-07-12T13:50:44.371Z,46
2023-07-12T13:51:49.278Z,47
2023-07-12T13:52:54.133Z,48
2023-07-12T13:53:59.037Z,47
2023-07-12T13:55:04.033Z,48
2023-07-12T13:56:45.594Z,48
2023-07-12T13:57:15.263Z,48
2023-07-12T13:58:30.268Z,48
2023-07-12T13:59:27.745Z,48
2023-07-12T14:00:43.296Z,47
2023-07-12T14:03:46.905Z,49
2023-07-12T14:04:54.426Z,48
2023-07-12T14:05:58.226Z,48
2023-07-12T14:07:02.534Z,48
2023-07-12T14:09:10.788Z,48
2023-07-12T14:10:17.663Z,48
2023-07-12T14:11:20.459Z,48
2023-07-12T14:12:25.264Z,48
2023-07-12T14:13:29.951Z,49
2023-07-12T14:14:34.750Z,48
2023-07-12T14:15:39.529Z,48
2023-07-12T14:16:44.401Z,48
2023-07-12T14:17:49.234Z,48
2023-07-12T14:18:53.854Z,47
2023-07-12T14:19:58.610Z,48
2023-07-12T14:21:03.452Z,47
2023-07-12T14:22:09.648Z,47
2023-07-12T14:23:20.337Z,47
2023-07-12T14:24:25.072Z,47
2023-07-12T14:25:29.840Z,47
2023-07-12T14:26:35.821Z,47
2023-07-12T14:27:40.668Z,47
2023-07-12T14:32:01.340Z,47
2023-07-12T14:33:06.134Z,47
2023-07-12T14:34:19.819Z,47
2023-07-12T14:35:24.818Z,47
2023-07-12T14:36:30.613Z,48
2023-07-12T14:37:35.412Z,47
2023-07-12T14:38:42.419Z,47
2023-07-12T14:39:46.950Z,47
2023-07-12T14:40:51.799Z,47
2023-07-12T14:41:56.485Z,47
2023-07-12T14:43:01.426Z,47
2023-07-12T14:44:07.311Z,47
2023-07-12T14:45:17.218Z,47
2023-07-12T14:46:21.979Z,47
2023-07-12T14:47:26.783Z,47
2023-07-12T14:48:31.537Z,46
2023-07-12T14:49:36.252Z,47
2023-07-12T14:50:41.477Z,47
2023-07-12T14:51:59.726Z,47
2023-07-12T14:52:52.328Z,47
2023-07-12T14:53:57.124Z,47
2023-07-12T14:55:02.037Z,47
2023-07-12T14:56:07.059Z,46
2023-07-12T14:57:23.428Z,46
2023-07-12T14:58:20.498Z,46
2023-07-12T14:59:21.243Z,46
2023-07-12T15:00:26.551Z,46
2023-07-12T15:01:31.345Z,46
2023-07-12T15:02:36.151Z,46
2023-07-12T15:03:44.699Z,47
2023-07-12T15:04:49.442Z,46
2023-07-12T15:06:00.199Z,47
2023-07-12T15:07:04.844Z,46
2023-07-12T15:08:10.210Z,47
2023-07-12T15:09:28.055Z,46
2023-07-12T15:10:30.166Z,46
2023-07-12T15:11:34.987Z,46
2023-07-12T15:12:40.032Z,46
2023-07-12T15:13:44.958Z,46
2023-07-12T15:14:53.004Z,46
2023-07-12T15:15:57.826Z,46
2023-07-12T15:17:02.635Z,46
2023-07-12T15:18:07.799Z,46
2023-07-12T15:19:18.688Z,45
2023-07-12T15:20:24.855Z,46
2023-07-12T15:21:28.432Z,46
2023-07-12T15:22:36.216Z,46
2023-07-12T15:23:43.575Z,46
2023-07-12T15:24:48.263Z,47
2023-07-12T15:25:53.026Z,46
2023-07-12T15:26:57.891Z,46
2023-07-12T15:28:02.577Z,47
2023-07-12T15:29:07.370Z,47
2023-07-12T15:30:12.086Z,47
2023-07-12T15:31:19.810Z,48
2023-07-12T15:32:24.517Z,47
2023-07-12T15:33:29.331Z,48
2023-07-12T15:34:34.031Z,47
2023-07-12T15:35:38.768Z,46
2023-07-12T15:36:43.580Z,47
2023-07-12T15:37:48.370Z,46
2023-07-12T15:38:56.167Z,46
2023-07-12T15:40:00.985Z,46
2023-07-12T15:41:05.734Z,46
2023-07-12T15:42:16.623Z,46
2023-07-12T15:43:21.422Z,46
2023-07-12T15:44:31.270Z,46
2023-07-12T15:45:36.055Z,46
2023-07-12T15:46:40.905Z,47
2023-07-12T15:47:45.583Z,46
2023-07-12T15:48:50.413Z,46
2023-07-12T15:49:55.090Z,45
2023-07-12T15:50:59.892Z,45
2023-07-12T15:52:09.821Z,45
2023-07-12T15:53:19.634Z,45
2023-07-12T15:54:24.548Z,45
2023-07-12T15:55:29.406Z,45
2023-07-12T15:56:36.667Z,45
2023-07-12T15:57:40.375Z,45
2023-07-12T15:58:45.981Z,45
2023-07-12T15:59:50.809Z,45
2023-07-12T16:00:55.674Z,45
2023-07-12T16:02:00.390Z,45
2023-07-12T16:03:05.367Z,44
2023-07-12T16:04:10.177Z,44
2023-07-12T16:05:20.034Z,45
2023-07-12T16:06:26.180Z,44
2023-07-12T16:07:30.900Z,43
2023-07-12T16:08:35.642Z,43
2023-07-12T16:09:40.382Z,44
2023-07-12T16:10:45.169Z,44
2023-07-12T16:11:49.934Z,44
2023-07-12T16:12:54.717Z,43
2023-07-12T16:14:01.436Z,43
2023-07-12T16:15:04.252Z,43
2023-07-12T16:16:09.386Z,43